Time;durP1;ratioP1;P1;durP2;ratioP2;P2;SDS_P1;SDS_P2;PMS_P1;PMS_P2;Temp;Humidity;BMP_temperature;BMP_pressure;BME280_temperature;BME280_humidity;BME280_pressure;Samples;Min_cycle;Max_cycle;Signal;HPM_P1;HPM_P2
2023/05/19 00:01:42;;;;;;;19.83;6.60;;;7.40;99.90;;;;;;5068848;28;20583;-61
2023/05/19 00:04:11;;;;;;;17.60;6.80;;;7.30;99.90;;;;;;5039343;28;20055;-61
2023/05/19 00:06:37;;;;;;;22.15;7.18;;;7.40;99.90;;;;;;5071076;28;20045;-62
2023/05/19 00:09:08;;;;;;;24.15;7.05;;;7.30;99.90;;;;;;5035355;28;20047;-61
2023/05/19 00:11:37;;;;;;;16.95;6.80;;;7.30;99.90;;;;;;5036859;28;20071;-61
2023/05/19 00:14:05;;;;;;;18.00;7.20;;;7.30;99.90;;;;;;5041231;28;20487;-61
2023/05/19 00:16:32;;;;;;;19.73;7.53;;;7.30;99.90;;;;;;5040530;28;20083;-62
2023/05/19 00:18:58;;;;;;;20.63;6.60;;;7.30;99.90;;;;;;5038217;28;20442;-62
2023/05/19 00:21:25;;;;;;;21.90;7.10;;;7.30;99.90;;;;;;5044253;28;20037;-62
2023/05/19 00:23:50;;;;;;;16.65;7.25;;;7.30;99.90;;;;;;5042186;28;20400;-61
2023/05/19 00:26:16;;;;;;;21.00;7.57;;;7.30;99.90;;;;;;5038637;28;20037;-61
2023/05/19 00:28:42;;;;;;;19.10;7.15;;;7.30;99.90;;;;;;5039974;28;20049;-61
2023/05/19 00:31:07;;;;;;;16.70;7.20;;;7.30;99.90;;;;;;5044429;28;20036;-62
2023/05/19 00:33:33;;;;;;;20.02;7.10;;;7.20;99.90;;;;;;5037613;28;20111;-61
2023/05/19 00:36:02;;;;;;;18.48;7.38;;;7.20;99.90;;;;;;5039489;28;20449;-61
2023/05/19 00:38:29;;;;;;;21.30;7.22;;;7.20;99.90;;;;;;5036982;28;20137;-61
2023/05/19 00:40:55;;;;;;;21.00;7.15;;;7.20;99.90;;;;;;5044648;28;20048;-62
2023/05/19 00:43:20;;;;;;;17.55;7.88;;;7.20;99.90;;;;;;5040227;28;20480;-63
2023/05/19 00:45:46;;;;;;;23.10;7.28;;;7.20;99.90;;;;;;5044026;28;20037;-61
2023/05/19 00:48:12;;;;;;;16.80;7.13;;;7.20;99.90;;;;;;5038523;28;20029;-61
2023/05/19 00:50:38;;;;;;;22.13;7.63;;;7.20;99.90;;;;;;5044524;28;20540;-61
2023/05/19 00:53:03;;;;;;;15.77;6.68;;;7.10;99.90;;;;;;5040016;28;20037;-62
2023/05/19 00:55:32;;;;;;;20.25;7.20;;;7.20;99.90;;;;;;5038951;28;20539;-62
2023/05/19 00:57:57;;;;;;;23.85;7.40;;;7.10;99.90;;;;;;5039153;28;20052;-61
2023/05/19 01:00:23;;;;;;;17.45;7.25;;;7.10;99.90;;;;;;5044592;28;20496;-61
2023/05/19 01:02:49;;;;;;;20.52;7.28;;;7.10;99.90;;;;;;5044416;28;20049;-61
2023/05/19 01:05:16;;;;;;;23.63;7.70;;;7.10;99.90;;;;;;5040620;28;20033;-62
2023/05/19 01:07:42;;;;;;;24.27;7.38;;;7.10;99.90;;;;;;5046015;28;20131;-61
2023/05/19 01:10:08;;;;;;;22.65;7.43;;;7.10;99.90;;;;;;5040907;28;20127;-62
2023/05/19 01:12:34;;;;;;;19.20;7.72;;;7.10;99.90;;;;;;5040350;28;20067;-61
2023/05/19 01:15:02;;;;;;;19.58;7.10;;;7.00;99.90;;;;;;5040445;28;20058;-62
2023/05/19 01:18:07;;;;;;;25.40;7.15;;;7.00;99.90;;;;;;5040091;28;20029;-61
2023/05/19 01:20:45;;;;;;;16.92;6.88;;;7.00;99.90;;;;;;4984346;28;20045;-61
2023/05/19 01:23:23;;;;;;;20.90;6.93;;;7.00;99.90;;;;;;5028706;28;20122;-61
2023/05/19 01:26:13;;;;;;;20.27;8.27;;;7.00;99.90;;;;;;5042429;28;20083;-61
2023/05/19 01:28:57;;;;;;;25.55;7.85;;;6.90;99.90;;;;;;5070513;28;20223;-61
2023/05/19 01:31:24;;;;;;;15.50;7.10;;;6.90;99.90;;;;;;5040345;28;20041;-62
2023/05/19 01:33:52;;;;;;;20.45;6.93;;;6.90;99.90;;;;;;5040122;28;20438;-62
2023/05/19 01:36:21;;;;;;;23.27;7.03;;;6.90;99.90;;;;;;5042289;28;20041;-62
2023/05/19 01:38:52;;;;;;;18.20;7.40;;;6.90;99.90;;;;;;5039210;28;20049;-62
2023/05/19 01:41:21;;;;;;;22.60;7.80;;;6.90;99.90;;;;;;5025496;28;20041;-62
2023/05/19 01:43:48;;;;;;;18.67;7.28;;;6.90;99.90;;;;;;5071644;28;20053;-62
2023/05/19 01:46:14;;;;;;;17.75;7.60;;;6.90;99.90;;;;;;5041965;28;20041;-62
2023/05/19 01:48:41;;;;;;;23.10;7.50;;;6.80;99.90;;;;;;5040900;28;20041;-61
2023/05/19 01:51:07;;;;;;;17.52;7.65;;;6.80;99.90;;;;;;5040960;28;20500;-61
2023/05/19 01:53:33;;;;;;;17.77;7.20;;;6.90;99.90;;;;;;5040389;28;20048;-61
2023/05/19 01:55:58;;;;;;;21.55;7.50;;;6.90;99.90;;;;;;5038908;28;20094;-61
2023/05/19 01:58:30;;;;;;;18.80;7.43;;;6.90;99.90;;;;;;5036727;28;20033;-61
2023/05/19 02:01:24;;;;;;;24.53;7.27;;;6.90;99.90;;;;;;5020266;28;20036;-62
2023/05/19 02:04:11;;;;;;;22.23;7.25;;;6.90;99.90;;;;;;5037035;28;20042;-62
2023/05/19 02:07:06;;;;;;;22.20;7.30;;;6.90;99.90;;;;;;5041998;28;20029;-61
2023/05/19 02:10:03;;;;;;;23.27;7.50;;;6.90;99.90;;;;;;5036536;28;20050;-61
2023/05/19 02:12:36;;;;;;;25.48;7.40;;;6.90;99.90;;;;;;5039209;28;20068;-62
2023/05/19 02:15:10;;;;;;;18.60;7.68;;;6.90;99.90;;;;;;5042319;28;20044;-62
2023/05/19 02:17:46;;;;;;;24.85;7.32;;;6.80;99.90;;;;;;5042141;28;20052;-62
2023/05/19 02:20:12;;;;;;;23.98;7.60;;;6.80;99.90;;;;;;5042079;28;20043;-61
2023/05/19 02:22:38;;;;;;;21.83;7.15;;;6.80;99.90;;;;;;5041752;28;20045;-62
2023/05/19 02:25:04;;;;;;;22.63;7.25;;;6.80;99.90;;;;;;5038269;28;20041;-61
2023/05/19 02:27:29;;;;;;;24.40;7.85;;;6.80;99.90;;;;;;5077497;28;20056;-61
2023/05/19 02:29:55;;;;;;;20.05;7.30;;;6.80;99.90;;;;;;5034803;28;20041;-61
2023/05/19 02:32:21;;;;;;;24.80;7.40;;;6.80;99.90;;;;;;5040315;28;20117;-61
2023/05/19 02:34:47;;;;;;;18.58;7.15;;;6.80;99.90;;;;;;5040688;28;20063;-61
2023/05/19 02:37:13;;;;;;;20.33;7.32;;;6.80;99.90;;;;;;5035579;28;20574;-61
2023/05/19 02:39:39;;;;;;;20.58;6.55;;;6.80;99.90;;;;;;5040347;28;20055;-61
2023/05/19 02:42:05;;;;;;;18.77;6.93;;;6.80;99.90;;;;;;5034211;28;20400;-62
2023/05/19 02:44:31;;;;;;;20.10;7.10;;;6.80;99.90;;;;;;5035116;28;20064;-62
2023/05/19 02:46:56;;;;;;;20.60;7.13;;;6.70;99.90;;;;;;5040034;28;20526;-62
2023/05/19 02:49:22;;;;;;;17.45;7.18;;;6.70;99.90;;;;;;5038806;28;20049;-61
2023/05/19 02:51:47;;;;;;;17.63;7.07;;;6.70;99.90;;;;;;5044222;28;20119;-61
2023/05/19 02:54:13;;;;;;;18.58;7.15;;;6.70;99.90;;;;;;5036053;28;20115;-61
2023/05/19 02:56:38;;;;;;;26.05;7.13;;;6.70;99.90;;;;;;5074163;28;20114;-62
2023/05/19 02:59:05;;;;;;;21.85;6.75;;;6.70;99.90;;;;;;5033847;28;20380;-61
2023/05/19 03:01:31;;;;;;;23.88;7.50;;;6.70;99.90;;;;;;5040891;28;20048;-61
2023/05/19 03:03:57;;;;;;;22.95;7.10;;;6.70;99.90;;;;;;5038588;28;20060;-61
2023/05/19 03:06:23;;;;;;;25.83;7.10;;;6.70;99.90;;;;;;5039103;28;20076;-62
2023/05/19 03:08:49;;;;;;;18.00;7.13;;;6.70;99.90;;;;;;5066853;28;20486;-61
2023/05/19 03:11:15;;;;;;;18.95;7.20;;;6.70;99.90;;;;;;5033364;28;20482;-61
2023/05/19 03:13:40;;;;;;;18.52;6.47;;;6.70;99.90;;;;;;5035409;28;20047;-61
2023/05/19 03:16:07;;;;;;;17.45;6.68;;;6.60;99.90;;;;;;5044167;28;20430;-62
2023/05/19 03:18:33;;;;;;;15.63;6.40;;;6.60;99.90;;;;;;5071402;28;20377;-61
2023/05/19 03:20:59;;;;;;;16.65;6.47;;;6.70;99.90;;;;;;5042861;28;20135;-61
2023/05/19 03:23:25;;;;;;;21.85;6.63;;;6.60;99.90;;;;;;5069490;28;20057;-61
2023/05/19 03:25:52;;;;;;;21.02;7.47;;;6.60;99.90;;;;;;5039416;28;20087;-61
2023/05/19 03:28:18;;;;;;;19.38;7.18;;;6.60;99.90;;;;;;5034897;28;20090;-62
2023/05/19 03:30:44;;;;;;;22.65;7.75;;;6.60;99.90;;;;;;5034468;28;20999;-61
2023/05/19 03:33:10;;;;;;;18.05;6.95;;;6.60;99.90;;;;;;5068176;28;20392;-61
2023/05/19 03:35:36;;;;;;;19.55;6.63;;;6.60;99.90;;;;;;5037387;28;20133;-61
2023/05/19 03:38:01;;;;;;;21.45;7.20;;;6.60;99.90;;;;;;5072138;28;20048;-61
2023/05/19 03:40:27;;;;;;;19.67;7.07;;;6.60;99.90;;;;;;5039180;28;20033;-61
2023/05/19 03:42:55;;;;;;;22.45;7.50;;;6.60;99.90;;;;;;5068496;28;20100;-62
2023/05/19 03:45:21;;;;;;;24.88;7.22;;;6.60;99.90;;;;;;5042201;28;20040;-62
2023/05/19 03:47:46;;;;;;;19.92;7.10;;;6.60;99.90;;;;;;5034967;28;20500;-62
2023/05/19 03:50:12;;;;;;;21.40;7.53;;;6.60;99.90;;;;;;5040677;28;20506;-61
2023/05/19 03:52:38;;;;;;;22.42;6.90;;;6.60;99.90;;;;;;5035987;28;20052;-62
2023/05/19 03:55:05;;;;;;;23.80;6.97;;;6.70;99.90;;;;;;5037955;28;20131;-62
2023/05/19 03:57:32;;;;;;;20.63;7.18;;;6.70;99.90;;;;;;5075448;28;20099;-62
2023/05/19 03:59:58;;;;;;;19.50;7.65;;;6.70;99.90;;;;;;5040139;28;20090;-62
2023/05/19 04:02:23;;;;;;;20.42;7.72;;;6.70;99.90;;;;;;5037316;28;20037;-62
2023/05/19 04:04:49;;;;;;;21.30;8.15;;;6.70;99.90;;;;;;5034005;28;20045;-61
2023/05/19 04:07:15;;;;;;;18.95;7.13;;;6.70;99.90;;;;;;5036709;28;20041;-62
2023/05/19 04:09:41;;;;;;;17.80;7.28;;;6.80;99.90;;;;;;5035143;28;20060;-61
2023/05/19 04:12:07;;;;;;;20.17;7.13;;;6.80;99.90;;;;;;5038203;28;20041;-62
2023/05/19 04:14:32;;;;;;;18.38;6.88;;;6.90;99.90;;;;;;5067389;28;20364;-62
2023/05/19 04:16:58;;;;;;;20.05;6.95;;;6.90;99.90;;;;;;5037491;28;20484;-62
2023/05/19 04:19:24;;;;;;;16.77;7.35;;;6.90;99.90;;;;;;5041798;28;20462;-62
2023/05/19 04:21:50;;;;;;;19.17;7.35;;;6.90;99.90;;;;;;5038296;28;20037;-61
2023/05/19 04:24:15;;;;;;;16.15;7.03;;;7.00;99.90;;;;;;5036523;28;21667;-61
2023/05/19 04:26:44;;;;;;;19.83;7.50;;;7.00;99.90;;;;;;5069081;28;20032;-62
2023/05/19 04:29:12;;;;;;;21.80;8.00;;;7.00;99.90;;;;;;5040624;28;20080;-62
2023/05/19 04:31:39;;;;;;;24.02;8.20;;;7.10;99.90;;;;;;5076047;28;20128;-62
2023/05/19 04:34:06;;;;;;;24.23;8.00;;;7.10;99.90;;;;;;5038270;28;20464;-62
2023/05/19 04:36:32;;;;;;;22.45;7.88;;;7.30;99.90;;;;;;5037211;28;20052;-62
2023/05/19 04:39:01;;;;;;;23.45;7.75;;;7.30;99.90;;;;;;5036622;28;20045;-61
2023/05/19 04:41:27;;;;;;;23.98;7.63;;;7.40;99.90;;;;;;5034030;28;20123;-62
2023/05/19 04:43:52;;;;;;;21.05;7.47;;;7.50;99.90;;;;;;5041331;28;20080;-62
2023/05/19 04:46:22;;;;;;;18.75;7.32;;;7.60;99.90;;;;;;5045287;28;20127;-62
2023/05/19 04:48:49;;;;;;;22.08;7.72;;;7.70;99.90;;;;;;5074374;28;20052;-62
2023/05/19 04:51:15;;;;;;;21.70;7.97;;;7.70;99.90;;;;;;5044445;28;20037;-62
2023/05/19 04:53:41;;;;;;;21.35;8.70;;;7.80;99.90;;;;;;5041458;28;20382;-61
2023/05/19 04:56:08;;;;;;;20.58;8.00;;;7.90;99.90;;;;;;5041998;28;20029;-61
2023/05/19 04:58:33;;;;;;;21.73;8.40;;;8.00;99.90;;;;;;5041007;28;20036;-62
2023/05/19 05:00:59;;;;;;;20.70;8.38;;;8.10;99.90;;;;;;5042479;28;20051;-62
2023/05/19 05:03:25;;;;;;;20.13;8.15;;;8.10;99.90;;;;;;5040415;28;20039;-61
2023/05/19 05:05:51;;;;;;;19.65;7.85;;;8.20;99.90;;;;;;5045890;28;20515;-62
2023/05/19 05:08:21;;;;;;;20.88;8.38;;;8.30;99.90;;;;;;5038292;28;20047;-63
2023/05/19 05:10:51;;;;;;;25.27;8.75;;;8.30;99.90;;;;;;5039121;28;20041;-62
2023/05/19 05:13:20;;;;;;;23.13;8.23;;;8.50;99.90;;;;;;5037700;28;20055;-62
2023/05/19 05:15:46;;;;;;;26.10;9.40;;;8.60;99.90;;;;;;5072373;28;20041;-62
2023/05/19 05:18:12;;;;;;;23.40;9.65;;;8.70;99.90;;;;;;5040402;28;20036;-62
2023/05/19 05:20:38;;;;;;;23.55;9.07;;;8.80;99.90;;;;;;5043256;28;20571;-62
2023/05/19 05:23:04;;;;;;;24.27;9.00;;;8.90;99.90;;;;;;5029511;28;20399;-61
2023/05/19 05:25:30;;;;;;;21.73;8.77;;;9.00;99.90;;;;;;5037398;28;20029;-62
2023/05/19 05:27:57;;;;;;;25.35;8.90;;;9.10;99.90;;;;;;5031457;28;20064;-62
2023/05/19 05:30:23;;;;;;;19.83;8.13;;;9.20;99.90;;;;;;5071294;28;20472;-62
2023/05/19 05:32:48;;;;;;;26.55;8.75;;;9.30;99.90;;;;;;5033878;28;20063;-62
2023/05/19 05:35:14;;;;;;;18.90;8.55;;;9.40;99.90;;;;;;5043180;28;20029;-62
2023/05/19 05:37:40;;;;;;;22.20;8.63;;;9.50;99.90;;;;;;5073919;28;20495;-62
2023/05/19 05:40:06;;;;;;;20.38;9.10;;;9.60;99.90;;;;;;5042531;28;20541;-62
2023/05/19 05:42:32;;;;;;;21.40;8.77;;;9.60;99.90;;;;;;5037763;28;20040;-62
2023/05/19 05:44:57;;;;;;;20.55;8.25;;;9.70;99.90;;;;;;5038921;28;20494;-62
2023/05/19 05:47:23;;;;;;;19.42;8.85;;;9.80;99.90;;;;;;5032714;28;20045;-62
2023/05/19 05:49:49;;;;;;;22.45;9.20;;;10.00;99.90;;;;;;5035481;28;20140;-62
2023/05/19 05:52:17;;;;;;;21.95;8.77;;;10.10;99.90;;;;;;5036659;28;20040;-62
2023/05/19 05:54:43;;;;;;;25.27;9.82;;;10.10;99.90;;;;;;5047083;28;20083;-63
2023/05/19 05:57:09;;;;;;;20.58;8.48;;;10.10;99.90;;;;;;5041198;28;20049;-62
2023/05/19 05:59:35;;;;;;;20.60;10.40;;;10.10;99.90;;;;;;5033655;28;20082;-62
2023/05/19 06:02:00;;;;;;;19.55;8.57;;;10.20;99.90;;;;;;5043321;28;20399;-63
2023/05/19 06:04:26;;;;;;;24.92;9.27;;;10.20;99.90;;;;;;5044291;28;20448;-62
2023/05/19 06:06:52;;;;;;;24.90;9.38;;;10.40;99.90;;;;;;5044131;28;20044;-62
2023/05/19 06:09:18;;;;;;;21.83;8.38;;;10.50;99.90;;;;;;5042478;28;20044;-62
2023/05/19 06:11:43;;;;;;;20.67;9.35;;;10.70;99.90;;;;;;5043180;28;20488;-62
2023/05/19 06:14:09;;;;;;;19.25;8.55;;;10.80;99.90;;;;;;5047300;28;20037;-63
2023/05/19 06:16:35;;;;;;;20.95;8.40;;;10.90;99.90;;;;;;5043299;28;20033;-62
2023/05/19 06:19:00;;;;;;;17.10;8.98;;;11.00;99.90;;;;;;5045057;28;20048;-61
2023/05/19 06:21:26;;;;;;;22.63;8.98;;;11.20;99.90;;;;;;5042053;28;20033;-62
2023/05/19 06:23:52;;;;;;;19.25;8.10;;;11.30;99.90;;;;;;5040365;28;20108;-63
2023/05/19 06:26:17;;;;;;;17.85;8.25;;;11.50;99.90;;;;;;5048703;28;20057;-62
2023/05/19 06:28:43;;;;;;;20.10;9.45;;;11.60;99.90;;;;;;5044101;28;20578;-62
2023/05/19 06:31:08;;;;;;;18.23;8.50;;;11.70;99.90;;;;;;5076663;28;20059;-62
2023/05/19 06:33:34;;;;;;;14.70;8.13;;;11.80;99.90;;;;;;5041606;28;20400;-62
2023/05/19 06:35:59;;;;;;;18.48;7.85;;;11.80;99.90;;;;;;5046747;28;20037;-63
2023/05/19 06:38:25;;;;;;;18.95;7.70;;;11.90;99.90;;;;;;5040593;28;20515;-62
2023/05/19 06:40:50;;;;;;;18.40;8.63;;;12.00;99.90;;;;;;5054959;28;20161;-63
2023/05/19 06:43:16;;;;;;;18.65;8.27;;;12.10;99.90;;;;;;5067788;28;20067;-63
2023/05/19 06:45:42;;;;;;;19.17;8.88;;;12.20;99.90;;;;;;5045137;28;20116;-63
2023/05/19 06:48:07;;;;;;;18.00;7.78;;;12.30;99.90;;;;;;5048535;28;20036;-63
2023/05/19 06:50:33;;;;;;;15.45;8.32;;;12.40;99.90;;;;;;5033958;28;20049;-62
2023/05/19 06:52:59;;;;;;;15.48;7.75;;;12.50;99.90;;;;;;5040097;28;20039;-62
2023/05/19 06:55:24;;;;;;;14.38;7.22;;;12.60;99.90;;;;;;5031661;28;20042;-62
2023/05/19 06:57:50;;;;;;;16.20;7.80;;;12.70;99.90;;;;;;5040424;28;20459;-63
2023/05/19 07:00:17;;;;;;;19.65;8.00;;;12.70;99.90;;;;;;5066343;28;20045;-63
2023/05/19 07:02:43;;;;;;;16.58;7.30;;;12.80;99.90;;;;;;5041349;28;20764;-62
2023/05/19 07:05:09;;;;;;;18.17;7.80;;;12.90;99.90;;;;;;5050813;28;20067;-62
2023/05/19 07:07:35;;;;;;;15.93;7.60;;;13.00;99.90;;;;;;5037294;28;20674;-62
2023/05/19 07:10:00;;;;;;;14.23;7.22;;;13.10;99.90;;;;;;5033931;28;20484;-62
2023/05/19 07:12:26;;;;;;;15.80;8.13;;;13.20;99.90;;;;;;5037058;28;20441;-62
2023/05/19 07:14:52;;;;;;;18.13;7.45;;;13.30;99.90;;;;;;5080969;28;20044;-62
2023/05/19 07:17:17;;;;;;;16.65;6.63;;;13.40;99.90;;;;;;5046868;28;20048;-62
2023/05/19 07:19:43;;;;;;;18.30;7.28;;;13.50;99.90;;;;;;5037370;28;20038;-62
2023/05/19 07:22:09;;;;;;;20.25;7.75;;;13.60;99.90;;;;;;5039120;28;20041;-62
2023/05/19 07:24:34;;;;;;;15.02;6.97;;;13.70;99.90;;;;;;5046388;28;20120;-62
2023/05/19 07:27:00;;;;;;;17.38;7.07;;;13.80;99.90;;;;;;5049196;28;20041;-62
2023/05/19 07:29:26;;;;;;;16.73;6.35;;;13.90;99.90;;;;;;5043699;28;20106;-62
2023/05/19 07:31:53;;;;;;;15.68;5.95;;;13.90;99.90;;;;;;5049928;28;20391;-63
2023/05/19 07:34:20;;;;;;;13.88;6.43;;;14.00;99.90;;;;;;5038213;28;20045;-62
2023/05/19 07:36:46;;;;;;;12.70;6.07;;;14.00;99.90;;;;;;5042080;28;20041;-62
2023/05/19 07:39:12;;;;;;;11.55;5.13;;;14.10;99.90;;;;;;5032387;28;20048;-62
2023/05/19 07:41:38;;;;;;;11.95;5.35;;;14.20;99.90;;;;;;5031611;28;20357;-61
2023/05/19 07:44:06;;;;;;;12.57;5.15;;;14.20;99.90;;;;;;5047160;28;20071;-62
2023/05/19 07:46:32;;;;;;;11.45;5.60;;;14.30;99.90;;;;;;5050035;28;20052;-62
2023/05/19 07:48:58;;;;;;;11.93;5.25;;;14.40;99.90;;;;;;5046018;28;20048;-63
2023/05/19 07:51:24;;;;;;;14.35;5.47;;;14.50;99.90;;;;;;5038711;28;20030;-62
2023/05/19 07:53:50;;;;;;;15.98;5.72;;;14.60;99.90;;;;;;5046067;28;20044;-62
2023/05/19 07:56:16;;;;;;;12.95;5.05;;;14.70;99.90;;;;;;5045754;28;20067;-62
2023/05/19 07:58:42;;;;;;;11.05;4.80;;;14.80;99.90;;;;;;5044253;28;20079;-63
2023/05/19 08:01:07;;;;;;;11.77;4.80;;;15.00;99.90;;;;;;5047502;28;20069;-63
2023/05/19 08:03:33;;;;;;;13.85;5.10;;;15.10;99.90;;;;;;5044467;28;20044;-61
2023/05/19 08:05:58;;;;;;;13.30;5.18;;;15.20;99.90;;;;;;5047266;28;20033;-63
2023/05/19 08:08:24;;;;;;;12.25;4.65;;;15.40;99.90;;;;;;5043933;28;20083;-62
2023/05/19 08:10:50;;;;;;;14.82;4.45;;;15.40;99.90;;;;;;5045570;28;20047;-62
2023/05/19 08:13:15;;;;;;;9.82;4.28;;;15.50;99.90;;;;;;5043774;28;20079;-62
2023/05/19 08:15:41;;;;;;;13.93;4.75;;;15.50;99.90;;;;;;5046715;28;20039;-63
2023/05/19 08:18:07;;;;;;;11.60;4.38;;;15.40;99.90;;;;;;5044987;28;20049;-63
2023/05/19 08:20:32;;;;;;;12.55;4.28;;;15.40;99.90;;;;;;5047577;28;20502;-63
2023/05/19 08:22:58;;;;;;;11.90;5.18;;;15.40;99.90;;;;;;5044859;28;20045;-62
2023/05/19 08:25:24;;;;;;;14.30;5.00;;;15.50;99.90;;;;;;5046292;28;20468;-64
2023/05/19 08:27:50;;;;;;;15.90;5.00;;;15.70;99.90;;;;;;5040840;28;20033;-61
2023/05/19 08:30:15;;;;;;;12.32;4.90;;;15.80;99.90;;;;;;5043989;28;20040;-63
2023/05/19 08:32:41;;;;;;;11.07;4.72;;;15.80;99.90;;;;;;5046054;28;20033;-62
2023/05/19 08:35:07;;;;;;;12.82;4.80;;;15.90;99.90;;;;;;5047520;28;20073;-62
2023/05/19 08:37:35;;;;;;;13.07;4.90;;;15.90;99.90;;;;;;5046533;28;20554;-62
2023/05/19 08:40:03;;;;;;;14.18;5.43;;;15.90;99.90;;;;;;5047711;28;20051;-62
2023/05/19 08:42:29;;;;;;;15.95;5.60;;;15.90;99.90;;;;;;5044349;28;20041;-61
2023/05/19 08:44:55;;;;;;;11.32;4.25;;;15.90;99.90;;;;;;5047610;28;20032;-63
2023/05/19 08:47:21;;;;;;;11.43;4.80;;;16.00;99.90;;;;;;5042918;28;20041;-62
2023/05/19 08:49:51;;;;;;;12.48;4.47;;;16.20;99.90;;;;;;5078750;28;20045;-61
2023/05/19 08:52:41;;;;;;;9.43;4.45;;;16.20;99.90;;;;;;5046009;28;20043;-63
2023/05/19 08:55:20;;;;;;;16.27;5.05;;;16.30;99.90;;;;;;5043966;28;20028;-62
2023/05/19 08:57:48;;;;;;;18.17;4.63;;;16.30;99.90;;;;;;5044116;28;20128;-63
2023/05/19 09:00:15;;;;;;;12.57;4.45;;;16.40;99.90;;;;;;5044415;28;20427;-62
2023/05/19 09:02:42;;;;;;;13.85;5.55;;;16.50;99.90;;;;;;5046274;28;20041;-63
2023/05/19 09:05:08;;;;;;;13.48;4.63;;;16.60;99.90;;;;;;5039566;28;20124;-62
2023/05/19 09:07:35;;;;;;;13.10;4.97;;;16.60;99.90;;;;;;5045666;28;20070;-62
2023/05/19 09:10:01;;;;;;;12.65;5.00;;;16.70;99.90;;;;;;5039342;28;20068;-62
2023/05/19 09:12:27;;;;;;;9.73;4.85;;;16.60;99.90;;;;;;5046627;28;20041;-61
2023/05/19 09:14:52;;;;;;;13.30;5.22;;;16.60;99.90;;;;;;5047340;28;20392;-61
2023/05/19 09:17:18;;;;;;;12.90;4.80;;;16.60;99.90;;;;;;5047021;28;20094;-63
2023/05/19 09:19:46;;;;;;;9.65;4.47;;;16.70;99.90;;;;;;5041724;28;20049;-62
2023/05/19 09:22:14;;;;;;;12.40;4.68;;;16.80;99.90;;;;;;5042461;28;20094;-62
2023/05/19 09:24:40;;;;;;;12.38;4.70;;;16.80;99.90;;;;;;5041028;28;20091;-62
2023/05/19 09:27:06;;;;;;;13.38;5.50;;;17.00;99.90;;;;;;5030561;28;20434;-62
2023/05/19 09:29:32;;;;;;;12.63;5.43;;;17.10;99.90;;;;;;5045535;28;20041;-61
2023/05/19 09:32:00;;;;;;;15.07;5.30;;;17.30;99.90;;;;;;5035084;28;20481;-62
2023/05/19 09:34:26;;;;;;;9.93;4.63;;;17.40;99.90;;;;;;5051405;28;20040;-63
2023/05/19 09:36:52;;;;;;;11.35;5.07;;;17.50;99.90;;;;;;5084671;28;20107;-62
2023/05/19 09:39:20;;;;;;;10.77;4.45;;;17.70;99.90;;;;;;5044138;28;20052;-62
2023/05/19 09:41:49;;;;;;;14.80;4.70;;;17.70;99.90;;;;;;5052687;28;20077;-63
2023/05/19 09:44:22;;;;;;;14.77;4.70;;;17.80;99.90;;;;;;5050371;28;20075;-62
2023/05/19 09:46:52;;;;;;;12.65;4.78;;;17.90;99.90;;;;;;5041788;28;20045;-62
2023/05/19 09:49:25;;;;;;;11.10;4.70;;;17.90;99.90;;;;;;5049649;28;20037;-62
2023/05/19 09:51:58;;;;;;;9.85;4.38;;;18.00;99.90;;;;;;5048811;28;20033;-62
2023/05/19 09:54:27;;;;;;;10.02;4.70;;;18.10;99.90;;;;;;5081486;28;20037;-62
2023/05/19 09:57:05;;;;;;;10.75;4.32;;;18.10;99.90;;;;;;5048719;28;20072;-61
2023/05/19 09:59:31;;;;;;;11.05;4.43;;;18.30;99.90;;;;;;5046145;28;20049;-63
2023/05/19 10:01:58;;;;;;;10.23;3.97;;;18.30;99.90;;;;;;5049113;28;20067;-62
2023/05/19 10:04:26;;;;;;;11.32;4.38;;;18.30;99.90;;;;;;5039327;28;20045;-63
2023/05/19 10:06:53;;;;;;;10.35;4.93;;;18.20;99.90;;;;;;5044302;28;20041;-61
2023/05/19 10:09:23;;;;;;;13.55;4.78;;;18.10;99.90;;;;;;5037443;28;20080;-62
2023/05/19 10:11:57;;;;;;;12.20;4.90;;;18.00;99.90;;;;;;5039175;28;20081;-62
2023/05/19 10:14:25;;;;;;;11.27;4.75;;;17.90;99.90;;;;;;5048433;28;20392;-62
2023/05/19 10:16:51;;;;;;;11.30;4.63;;;17.90;99.90;;;;;;5046439;28;20502;-63
2023/05/19 10:19:26;;;;;;;14.70;4.80;;;17.90;99.90;;;;;;5044251;28;20095;-61
2023/05/19 10:21:52;;;;;;;12.18;4.65;;;18.00;99.90;;;;;;5038462;28;20110;-62
2023/05/19 10:24:20;;;;;;;9.73;4.18;;;18.00;99.90;;;;;;5046135;28;20071;-62
2023/05/19 10:27:07;;;;;;;8.73;4.10;;;18.00;99.90;;;;;;5082055;28;20397;-62
2023/05/19 10:29:37;;;;;;;12.05;3.83;;;18.10;99.90;;;;;;5041365;28;20088;-62
2023/05/19 10:32:14;;;;;;;9.48;4.15;;;18.20;99.90;;;;;;5031909;28;20033;-62
2023/05/19 10:35:09;;;;;;;13.40;3.83;;;18.30;99.90;;;;;;5045814;28;20037;-63
2023/05/19 10:37:44;;;;;;;11.93;3.83;;;18.50;99.90;;;;;;5050178;28;20064;-61
2023/05/19 10:40:20;;;;;;;8.57;4.28;;;18.60;99.90;;;;;;5046938;28;20033;-62
2023/05/19 10:43:15;;;;;;;11.30;3.97;;;18.80;99.90;;;;;;5047197;28;20107;-62
2023/05/19 10:45:47;;;;;;;9.30;3.95;;;18.90;99.90;;;;;;5037612;28;20099;-60
2023/05/19 10:48:18;;;;;;;8.73;3.50;;;18.90;99.90;;;;;;5046778;28;20515;-61
2023/05/19 10:50:47;;;;;;;14.52;4.05;;;18.90;99.90;;;;;;5034934;28;20044;-61
2023/05/19 10:53:21;;;;;;;8.25;3.83;;;18.90;99.90;;;;;;5045616;28;20476;-61
2023/05/19 10:55:52;;;;;;;13.85;4.40;;;18.80;99.90;;;;;;5046686;28;20041;-62
2023/05/19 10:58:42;;;;;;;10.13;4.18;;;18.70;99.90;;;;;;5040299;28;20487;-61
2023/05/19 11:01:12;;;;;;;13.80;4.40;;;18.70;99.90;;;;;;5048274;28;20492;-61
2023/05/19 11:03:52;;;;;;;13.02;4.45;;;18.70;99.90;;;;;;5044583;28;20069;-62
2023/05/19 11:06:31;;;;;;;11.55;3.90;;;18.80;99.90;;;;;;5037490;28;20044;-62
2023/05/19 11:09:13;;;;;;;9.13;4.13;;;18.70;99.90;;;;;;5045679;28;20045;-62
2023/05/19 11:11:47;;;;;;;10.02;4.10;;;18.80;99.90;;;;;;5043018;28;20041;-63
2023/05/19 11:14:15;;;;;;;11.80;4.10;;;18.80;99.30;;;;;;5041029;28;20048;-61
2023/05/19 11:16:42;;;;;;;11.10;4.90;;;18.80;99.70;;;;;;5047724;28;20044;-61
2023/05/19 11:19:08;;;;;;;10.25;3.50;;;18.80;99.40;;;;;;5047748;28;20037;-61
2023/05/19 11:21:55;;;;;;;11.35;3.67;;;18.90;99.90;;;;;;5012499;28;1027700;-62
2023/05/19 11:24:34;;;;;;;8.55;3.90;;;19.00;99.30;;;;;;5040800;28;20037;-62
2023/05/19 11:27:21;;;;;;;7.80;3.47;;;19.20;98.70;;;;;;5045806;28;20350;-62
2023/05/19 11:29:47;;;;;;;13.40;4.20;;;19.30;98.90;;;;;;5032975;28;20046;-61
2023/05/19 11:32:13;;;;;;;10.25;3.80;;;19.30;97.70;;;;;;5035576;28;20087;-61
2023/05/19 11:34:39;;;;;;;8.70;3.40;;;19.20;94.00;;;;;;5038643;28;20038;-60
2023/05/19 11:37:06;;;;;;;9.57;3.78;;;18.90;93.70;;;;;;5041900;28;20047;-61
2023/05/19 11:39:32;;;;;;;8.35;3.78;;;18.80;96.10;;;;;;5040847;28;20060;-61
2023/05/19 11:41:57;;;;;;;7.63;3.40;;;18.80;97.10;;;;;;5048178;28;20384;-62
2023/05/19 11:44:23;;;;;;;20.88;4.65;;;18.90;97.20;;;;;;5046488;28;20037;-61
2023/05/19 11:46:48;;;;;;;9.52;3.55;;;19.00;98.10;;;;;;5045970;28;20041;-61
2023/05/19 11:49:14;;;;;;;6.63;4.07;;;19.10;98.20;;;;;;5037390;28;20046;-62
2023/05/19 11:51:43;;;;;;;7.47;3.67;;;19.10;97.80;;;;;;5041862;28;20048;-62
2023/05/19 11:54:11;;;;;;;10.82;3.88;;;19.20;97.90;;;;;;5040743;28;20033;-63
2023/05/19 11:56:41;;;;;;;10.85;3.97;;;19.20;96.60;;;;;;5039805;28;20033;-61
2023/05/19 11:59:07;;;;;;;8.07;3.78;;;19.10;96.40;;;;;;5037906;28;21908;-62
2023/05/19 12:01:33;;;;;;;9.32;3.20;;;19.10;96.80;;;;;;5042994;28;20083;-62
2023/05/19 12:03:59;;;;;;;9.52;4.10;;;19.10;95.20;;;;;;5040586;28;20139;-62
2023/05/19 12:06:26;;;;;;;11.30;4.20;;;19.20;96.70;;;;;;5046764;28;20043;-61
2023/05/19 12:08:54;;;;;;;9.60;3.88;;;19.30;96.70;;;;;;5040000;28;20033;-61
2023/05/19 12:11:20;;;;;;;8.45;4.03;;;19.30;96.50;;;;;;5044477;28;20041;-61
2023/05/19 12:13:46;;;;;;;7.35;3.78;;;19.30;94.40;;;;;;5035807;28;20384;-61
2023/05/19 12:16:12;;;;;;;9.77;3.78;;;19.10;93.40;;;;;;5043812;28;20029;-62
2023/05/19 12:18:39;;;;;;;8.77;3.67;;;19.10;95.70;;;;;;5040794;28;20098;-62
2023/05/19 12:21:05;;;;;;;11.25;4.18;;;19.20;95.30;;;;;;5039086;28;20051;-62
2023/05/19 12:23:32;;;;;;;10.00;3.80;;;19.20;94.60;;;;;;5044556;28;20037;-62
2023/05/19 12:25:59;;;;;;;9.88;3.92;;;19.20;95.70;;;;;;5039450;28;20052;-61
2023/05/19 12:28:24;;;;;;;10.57;3.90;;;19.30;96.00;;;;;;5042199;28;20076;-61
2023/05/19 12:30:51;;;;;;;10.82;4.00;;;19.30;96.90;;;;;;5040531;28;20337;-62
2023/05/19 12:33:21;;;;;;;6.82;3.75;;;19.40;96.40;;;;;;5042073;28;20130;-62
2023/05/19 12:35:48;;;;;;;7.82;3.72;;;19.50;96.20;;;;;;5046329;28;20117;-61
2023/05/19 12:38:14;;;;;;;8.73;3.28;;;19.50;97.20;;;;;;5041992;28;20044;-62
2023/05/19 12:40:40;;;;;;;8.38;3.60;;;19.60;95.80;;;;;;5040408;28;20068;-62
2023/05/19 12:43:08;;;;;;;8.90;3.45;;;19.70;96.00;;;;;;5037966;28;20498;-61
2023/05/19 12:45:38;;;;;;;13.07;3.95;;;19.80;95.80;;;;;;5043634;28;20045;-62
2023/05/19 12:48:14;;;;;;;7.93;3.47;;;19.70;95.70;;;;;;5038044;28;20099;-62